sensor_id;sensor_type;location;lat;lon;timestamp;temperature;humidity
17740;DHT22;8990;33.226;-97.150;2022-10-14T00:01:50;23.60;73.40
17740;DHT22;8990;33.226;-97.150;2022-10-14T00:04:20;23.50;74.20
17740;DHT22;8990;33.226;-97.150;2022-10-14T00:06:51;23.40;74.80
17740;DHT22;8990;33.226;-97.150;2022-10-14T00:09:21;23.30;76.10
17740;DHT22;8990;33.226;-97.150;2022-10-14T00:11:50;23.10;75.40
17740;DHT22;8990;33.226;-97.150;2022-10-14T00:14:20;23.00;75.90
17740;DHT22;8990;33.226;-97.150;2022-10-14T00:16:53;22.80;76.20
17740;DHT22;8990;33.226;-97.150;2022-10-14T00:19:22;22.70;76.80
17740;DHT22;8990;33.226;-97.150;2022-10-14T00:21:54;22.60;77.60
17740;DHT22;8990;33.226;-97.150;2022-10-14T00:24:24;22.40;77.70
17740;DHT22;8990;33.226;-97.150;2022-10-14T00:26:53;22.30;78.20
17740;DHT22;8990;33.226;-97.150;2022-10-14T00:29:23;22.20;79.00
17740;DHT22;8990;33.226;-97.150;2022-10-14T00:31:53;22.10;79.20
17740;DHT22;8990;33.226;-97.150;2022-10-14T00:34:22;22.10;80.10
17740;DHT22;8990;33.226;-97.150;2022-10-14T00:36:55;21.90;80.20
17740;DHT22;8990;33.226;-97.150;2022-10-14T00:39:24;21.80;81.00
17740;DHT22;8990;33.226;-97.150;2022-10-14T00:41:55;21.70;82.10
17740;DHT22;8990;33.226;-97.150;2022-10-14T00:44:59;21.60;82.60
17740;DHT22;8990;33.226;-97.150;2022-10-14T00:47:30;21.50;82.20
17740;DHT22;8990;33.226;-97.150;2022-10-14T00:50:01;21.30;81.20
17740;DHT22;8990;33.226;-97.150;2022-10-14T00:52:33;21.20;82.80
17740;DHT22;8990;33.226;-97.150;2022-10-14T00:55:05;21.20;81.40
17740;DHT22;8990;33.226;-97.150;2022-10-14T00:57:35;21.10;82.30
17740;DHT22;8990;33.226;-97.150;2022-10-14T01:00:10;21.10;82.40
17740;DHT22;8990;33.226;-97.150;2022-10-14T01:02:39;21.00;81.70
17740;DHT22;8990;33.226;-97.150;2022-10-14T01:05:10;20.90;81.70
17740;DHT22;8990;33.226;-97.150;2022-10-14T01:07:54;20.90;82.60
17740;DHT22;8990;33.226;-97.150;2022-10-14T01:10:34;20.90;83.40
17740;DHT22;8990;33.226;-97.150;2022-10-14T01:13:16;20.80;82.70
17740;DHT22;8990;33.226;-97.150;2022-10-14T01:15:55;20.70;82.50
17740;DHT22;8990;33.226;-97.150;2022-10-14T01:21:28;20.60;83.50
17740;DHT22;8990;33.226;-97.150;2022-10-14T01:24:24;20.50;84.60
17740;DHT22;8990;33.226;-97.150;2022-10-14T01:27:15;20.50;84.70
17740;DHT22;8990;33.226;-97.150;2022-10-14T01:30:05;20.40;85.80
17740;DHT22;8990;33.226;-97.150;2022-10-14T01:32:42;20.40;85.20
17740;DHT22;8990;33.226;-97.150;2022-10-14T01:35:21;20.30;85.40
17740;DHT22;8990;33.226;-97.150;2022-10-14T01:37:54;20.30;85.60
17740;DHT22;8990;33.226;-97.150;2022-10-14T01:40:32;20.30;85.10
17740;DHT22;8990;33.226;-97.150;2022-10-14T01:43:04;20.20;86.00
17740;DHT22;8990;33.226;-97.150;2022-10-14T01:45:36;20.10;85.20
17740;DHT22;8990;33.226;-97.150;2022-10-14T01:48:12;20.00;85.30
17740;DHT22;8990;33.226;-97.150;2022-10-14T01:50:47;20.00;87.60
17740;DHT22;8990;33.226;-97.150;2022-10-14T01:53:19;19.90;88.50
17740;DHT22;8990;33.226;-97.150;2022-10-14T01:55:52;19.90;88.40
17740;DHT22;8990;33.226;-97.150;2022-10-14T01:58:24;19.80;88.00
17740;DHT22;8990;33.226;-97.150;2022-10-14T02:00:56;19.70;86.80
17740;DHT22;8990;33.226;-97.150;2022-10-14T02:03:38;19.60;87.10
17740;DHT22;8990;33.226;-97.150;2022-10-14T02:06:11;19.50;88.20
17740;DHT22;8990;33.226;-97.150;2022-10-14T02:08:58;19.40;88.00
17740;DHT22;8990;33.226;-97.150;2022-10-14T02:11:33;19.40;88.10
17740;DHT22;8990;33.226;-97.150;2022-10-14T02:14:11;19.40;87.50
17740;DHT22;8990;33.226;-97.150;2022-10-14T02:16:50;19.30;88.10
17740;DHT22;8990;33.226;-97.150;2022-10-14T02:19:27;19.30;88.70
17740;DHT22;8990;33.226;-97.150;2022-10-14T02:22:02;19.20;88.70
17740;DHT22;8990;33.226;-97.150;2022-10-14T02:24:35;19.10;88.80
17740;DHT22;8990;33.226;-97.150;2022-10-14T02:27:09;19.00;89.10
17740;DHT22;8990;33.226;-97.150;2022-10-14T02:29:42;19.00;89.50
17740;DHT22;8990;33.226;-97.150;2022-10-14T02:32:17;18.90;89.80
17740;DHT22;8990;33.226;-97.150;2022-10-14T02:34:52;18.80;89.90
17740;DHT22;8990;33.226;-97.150;2022-10-14T02:37:23;18.70;90.90
17740;DHT22;8990;33.226;-97.150;2022-10-14T02:39:57;18.70;91.20
17740;DHT22;8990;33.226;-97.150;2022-10-14T02:42:27;18.60;91.10
17740;DHT22;8990;33.226;-97.150;2022-10-14T02:44:58;18.50;90.90
17740;DHT22;8990;33.226;-97.150;2022-10-14T02:47:29;18.40;91.00
17740;DHT22;8990;33.226;-97.150;2022-10-14T02:49:59;18.30;91.90
17740;DHT22;8990;33.226;-97.150;2022-10-14T02:52:30;18.30;92.20
17740;DHT22;8990;33.226;-97.150;2022-10-14T02:54:59;18.20;91.90
17740;DHT22;8990;33.226;-97.150;2022-10-14T02:57:28;18.20;91.80
17740;DHT22;8990;33.226;-97.150;2022-10-14T02:59:58;18.10;91.70
17740;DHT22;8990;33.226;-97.150;2022-10-14T03:02:29;18.10;92.70
17740;DHT22;8990;33.226;-97.150;2022-10-14T03:04:59;18.10;92.90
17740;DHT22;8990;33.226;-97.150;2022-10-14T03:07:28;18.00;93.10
17740;DHT22;8990;33.226;-97.150;2022-10-14T03:10:02;18.00;92.80
17740;DHT22;8990;33.226;-97.150;2022-10-14T03:12:35;17.90;92.60
17740;DHT22;8990;33.226;-97.150;2022-10-14T03:15:09;17.90;92.50
17740;DHT22;8990;33.226;-97.150;2022-10-14T03:17:41;17.90;93.40
17740;DHT22;8990;33.226;-97.150;2022-10-14T03:20:13;17.90;93.60
17740;DHT22;8990;33.226;-97.150;2022-10-14T03:22:47;17.80;93.80
17740;DHT22;8990;33.226;-97.150;2022-10-14T03:25:17;17.80;93.80
17740;DHT22;8990;33.226;-97.150;2022-10-14T03:28:00;17.70;93.40
17740;DHT22;8990;33.226;-97.150;2022-10-14T03:30:52;17.70;94.00
17740;DHT22;8990;33.226;-97.150;2022-10-14T03:33:42;17.50;94.40
17740;DHT22;8990;33.226;-97.150;2022-10-14T03:36:13;17.30;94.40
17740;DHT22;8990;33.226;-97.150;2022-10-14T03:38:50;17.30;94.20
17740;DHT22;8990;33.226;-97.150;2022-10-14T03:41:35;17.30;94.20
17740;DHT22;8990;33.226;-97.150;2022-10-14T03:44:05;17.20;94.00
17740;DHT22;8990;33.226;-97.150;2022-10-14T03:46:37;17.20;94.30
17740;DHT22;8990;33.226;-97.150;2022-10-14T03:49:08;17.20;94.50
17740;DHT22;8990;33.226;-97.150;2022-10-14T03:51:38;17.10;95.10
17740;DHT22;8990;33.226;-97.150;2022-10-14T03:54:22;17.20;95.30
17740;DHT22;8990;33.226;-97.150;2022-10-14T03:56:53;17.00;95.00
17740;DHT22;8990;33.226;-97.150;2022-10-14T03:59:27;16.80;95.10
17740;DHT22;8990;33.226;-97.150;2022-10-14T04:01:57;16.80;95.70
17740;DHT22;8990;33.226;-97.150;2022-10-14T04:04:29;16.70;95.80
17740;DHT22;8990;33.226;-97.150;2022-10-14T04:06:59;16.70;95.50
17740;DHT22;8990;33.226;-97.150;2022-10-14T04:09:29;16.60;95.20
17740;DHT22;8990;33.226;-97.150;2022-10-14T04:11:59;16.60;95.50
17740;DHT22;8990;33.226;-97.150;2022-10-14T04:14:48;16.50;95.70
17740;DHT22;8990;33.226;-97.150;2022-10-14T04:17:19;16.50;95.70
17740;DHT22;8990;33.226;-97.150;2022-10-14T04:19:50;16.40;96.20
17740;DHT22;8990;33.226;-97.150;2022-10-14T04:22:21;16.40;96.10
17740;DHT22;8990;33.226;-97.150;2022-10-14T04:24:55;16.40;96.00
17740;DHT22;8990;33.226;-97.150;2022-10-14T04:27:25;16.30;95.90
17740;DHT22;8990;33.226;-97.150;2022-10-14T04:30:02;16.20;96.10
17740;DHT22;8990;33.226;-97.150;2022-10-14T04:32:42;16.10;96.20
17740;DHT22;8990;33.226;-97.150;2022-10-14T04:35:13;16.10;97.00
17740;DHT22;8990;33.226;-97.150;2022-10-14T04:37:46;16.20;97.30
17740;DHT22;8990;33.226;-97.150;2022-10-14T04:40:28;16.20;97.30
17740;DHT22;8990;33.226;-97.150;2022-10-14T04:42:58;16.20;97.10
17740;DHT22;8990;33.226;-97.150;2022-10-14T04:45:33;16.20;97.30
17740;DHT22;8990;33.226;-97.150;2022-10-14T04:48:03;16.20;97.70
17740;DHT22;8990;33.226;-97.150;2022-10-14T04:50:41;16.00;97.00
17740;DHT22;8990;33.226;-97.150;2022-10-14T04:53:30;16.00;97.40
17740;DHT22;8990;33.226;-97.150;2022-10-14T04:56:16;15.90;97.70
17740;DHT22;8990;33.226;-97.150;2022-10-14T04:58:54;15.90;98.20
17740;DHT22;8990;33.226;-97.150;2022-10-14T05:01:35;15.90;98.40
17740;DHT22;8990;33.226;-97.150;2022-10-14T05:04:04;15.70;98.40
17740;DHT22;8990;33.226;-97.150;2022-10-14T05:06:38;15.60;98.50
17740;DHT22;8990;33.226;-97.150;2022-10-14T05:09:10;15.60;98.50
17740;DHT22;8990;33.226;-97.150;2022-10-14T05:11:40;15.60;98.80
17740;DHT22;8990;33.226;-97.150;2022-10-14T05:14:13;15.60;98.70
17740;DHT22;8990;33.226;-97.150;2022-10-14T05:16:47;15.40;98.90
17740;DHT22;8990;33.226;-97.150;2022-10-14T05:19:23;15.30;99.20
17740;DHT22;8990;33.226;-97.150;2022-10-14T05:21:55;15.30;99.90
17740;DHT22;8990;33.226;-97.150;2022-10-14T05:24:34;15.40;99.80
17740;DHT22;8990;33.226;-97.150;2022-10-14T05:27:03;15.50;99.60
17740;DHT22;8990;33.226;-97.150;2022-10-14T05:29:33;15.40;99.50
17740;DHT22;8990;33.226;-97.150;2022-10-14T05:32:03;15.40;99.60
17740;DHT22;8990;33.226;-97.150;2022-10-14T05:34:42;15.30;99.60
17740;DHT22;8990;33.226;-97.150;2022-10-14T05:37:19;15.30;99.90
17740;DHT22;8990;33.226;-97.150;2022-10-14T05:39:52;15.20;99.90
17740;DHT22;8990;33.226;-97.150;2022-10-14T05:42:24;15.10;99.90
17740;DHT22;8990;33.226;-97.150;2022-10-14T05:44:56;15.10;99.90
17740;DHT22;8990;33.226;-97.150;2022-10-14T05:47:28;15.20;99.90
17740;DHT22;8990;33.226;-97.150;2022-10-14T05:50:02;15.20;99.90
17740;DHT22;8990;33.226;-97.150;2022-10-14T05:52:34;15.10;99.90
17740;DHT22;8990;33.226;-97.150;2022-10-14T05:55:12;15.10;99.90
17740;DHT22;8990;33.226;-97.150;2022-10-14T05:57:42;15.10;99.90
17740;DHT22;8990;33.226;-97.150;2022-10-14T06:00:15;15.10;99.90
17740;DHT22;8990;33.226;-97.150;2022-10-14T06:02:49;15.00;99.90
17740;DHT22;8990;33.226;-97.150;2022-10-14T06:05:19;15.00;99.90
17740;DHT22;8990;33.226;-97.150;2022-10-14T06:07:50;15.10;99.90
17740;DHT22;8990;33.226;-97.150;2022-10-14T06:10:19;15.00;99.90
17740;DHT22;8990;33.226;-97.150;2022-10-14T06:12:48;14.80;99.90
17740;DHT22;8990;33.226;-97.150;2022-10-14T06:15:19;14.70;99.90
17740;DHT22;8990;33.226;-97.150;2022-10-14T06:17:49;14.60;99.90
17740;DHT22;8990;33.226;-97.150;2022-10-14T06:20:19;14.70;99.90
17740;DHT22;8990;33.226;-97.150;2022-10-14T06:22:52;14.80;99.90
17740;DHT22;8990;33.226;-97.150;2022-10-14T06:25:22;14.80;99.90
17740;DHT22;8990;33.226;-97.150;2022-10-14T06:27:52;14.80;99.90
17740;DHT22;8990;33.226;-97.150;2022-10-14T06:30:21;14.80;99.90
17740;DHT22;8990;33.226;-97.150;2022-10-14T06:32:52;14.70;99.90
17740;DHT22;8990;33.226;-97.150;2022-10-14T06:35:21;14.60;99.90
17740;DHT22;8990;33.226;-97.150;2022-10-14T06:37:52;14.60;99.90
17740;DHT22;8990;33.226;-97.150;2022-10-14T06:40:21;14.60;99.90
17740;DHT22;8990;33.226;-97.150;2022-10-14T06:42:51;14.50;99.90
17740;DHT22;8990;33.226;-97.150;2022-10-14T06:45:20;14.40;99.90
17740;DHT22;8990;33.226;-97.150;2022-10-14T06:47:49;14.40;99.90
17740;DHT22;8990;33.226;-97.150;2022-10-14T06:50:20;14.40;99.90
17740;DHT22;8990;33.226;-97.150;2022-10-14T06:52:52;14.50;99.90
17740;DHT22;8990;33.226;-97.150;2022-10-14T06:55:21;14.40;99.90
17740;DHT22;8990;33.226;-97.150;2022-10-14T06:57:53;14.50;99.90
17740;DHT22;8990;33.226;-97.150;2022-10-14T07:00:26;14.50;99.90
17740;DHT22;8990;33.226;-97.150;2022-10-14T07:02:56;14.40;99.90
17740;DHT22;8990;33.226;-97.150;2022-10-14T07:05:26;14.30;99.90
17740;DHT22;8990;33.226;-97.150;2022-10-14T07:07:58;14.30;99.90
17740;DHT22;8990;33.226;-97.150;2022-10-14T07:10:27;14.20;99.90
17740;DHT22;8990;33.226;-97.150;2022-10-14T07:12:57;14.20;99.90
17740;DHT22;8990;33.226;-97.150;2022-10-14T07:15:26;14.20;99.90
17740;DHT22;8990;33.226;-97.150;2022-10-14T07:17:55;14.20;99.90
17740;DHT22;8990;33.226;-97.150;2022-10-14T07:20:24;14.30;99.90
17740;DHT22;8990;33.226;-97.150;2022-10-14T07:22:54;14.30;99.90
17740;DHT22;8990;33.226;-97.150;2022-10-14T07:25:25;14.30;99.90
17740;DHT22;8990;33.226;-97.150;2022-10-14T07:27:55;14.20;99.90
17740;DHT22;8990;33.226;-97.150;2022-10-14T07:30:25;14.20;99.90
17740;DHT22;8990;33.226;-97.150;2022-10-14T07:32:54;14.20;99.90
17740;DHT22;8990;33.226;-97.150;2022-10-14T07:35:23;14.00;99.90
17740;DHT22;8990;33.226;-97.150;2022-10-14T07:37:53;14.00;99.90
17740;DHT22;8990;33.226;-97.150;2022-10-14T07:40:24;14.00;99.90
17740;DHT22;8990;33.226;-97.150;2022-10-14T07:42:53;13.90;99.90
17740;DHT22;8990;33.226;-97.150;2022-10-14T07:45:23;14.00;99.90
17740;DHT22;8990;33.226;-97.150;2022-10-14T07:47:52;13.90;99.90
17740;DHT22;8990;33.226;-97.150;2022-10-14T07:50:22;14.00;99.90
17740;DHT22;8990;33.226;-97.150;2022-10-14T07:52:51;14.00;99.90
17740;DHT22;8990;33.226;-97.150;2022-10-14T07:55:20;13.90;99.90
17740;DHT22;8990;33.226;-97.150;2022-10-14T07:57:51;13.90;99.90
17740;DHT22;8990;33.226;-97.150;2022-10-14T08:00:20;13.90;99.90
17740;DHT22;8990;33.226;-97.150;2022-10-14T08:02:51;13.80;99.90
17740;DHT22;8990;33.226;-97.150;2022-10-14T08:05:21;13.80;99.90
17740;DHT22;8990;33.226;-97.150;2022-10-14T08:07:52;13.80;99.90
17740;DHT22;8990;33.226;-97.150;2022-10-14T08:10:21;13.80;99.90
17740;DHT22;8990;33.226;-97.150;2022-10-14T08:12:53;13.70;99.90
17740;DHT22;8990;33.226;-97.150;2022-10-14T08:15:23;13.80;99.90
17740;DHT22;8990;33.226;-97.150;2022-10-14T08:17:55;13.80;99.90
17740;DHT22;8990;33.226;-97.150;2022-10-14T08:20:24;13.70;99.90
17740;DHT22;8990;33.226;-97.150;2022-10-14T08:22:54;13.70;99.90
17740;DHT22;8990;33.226;-97.150;2022-10-14T08:25:24;13.70;99.90
17740;DHT22;8990;33.226;-97.150;2022-10-14T08:27:55;13.60;99.90
17740;DHT22;8990;33.226;-97.150;2022-10-14T08:30:25;13.60;99.90
17740;DHT22;8990;33.226;-97.150;2022-10-14T08:32:54;13.60;99.90
17740;DHT22;8990;33.226;-97.150;2022-10-14T08:35:27;13.60;99.90
17740;DHT22;8990;33.226;-97.150;2022-10-14T08:37:56;13.50;99.90
17740;DHT22;8990;33.226;-97.150;2022-10-14T08:40:27;13.40;99.90
17740;DHT22;8990;33.226;-97.150;2022-10-14T08:43:03;13.30;99.90
17740;DHT22;8990;33.226;-97.150;2022-10-14T08:45:38;13.30;99.90
17740;DHT22;8990;33.226;-97.150;2022-10-14T08:48:15;13.30;99.90
17740;DHT22;8990;33.226;-97.150;2022-10-14T08:50:48;13.20;99.90
17740;DHT22;8990;33.226;-97.150;2022-10-14T08:53:22;13.10;99.90
17740;DHT22;8990;33.226;-97.150;2022-10-14T08:55:58;13.00;99.90
17740;DHT22;8990;33.226;-97.150;2022-10-14T08:58:32;13.10;99.90
17740;DHT22;8990;33.226;-97.150;2022-10-14T09:01:10;13.10;99.90
17740;DHT22;8990;33.226;-97.150;2022-10-14T09:03:42;13.10;99.90
17740;DHT22;8990;33.226;-97.150;2022-10-14T09:06:24;13.00;99.90
17740;DHT22;8990;33.226;-97.150;2022-10-14T09:08:59;13.10;99.90
17740;DHT22;8990;33.226;-97.150;2022-10-14T09:11:37;13.10;99.90
17740;DHT22;8990;33.226;-97.150;2022-10-14T09:14:14;13.10;99.90
17740;DHT22;8990;33.226;-97.150;2022-10-14T09:16:47;13.10;99.90
17740;DHT22;8990;33.226;-97.150;2022-10-14T09:19:25;13.10;99.90
17740;DHT22;8990;33.226;-97.150;2022-10-14T09:21:57;13.20;99.90
17740;DHT22;8990;33.226;-97.150;2022-10-14T09:24:30;13.20;99.90
17740;DHT22;8990;33.226;-97.150;2022-10-14T09:27:04;13.10;99.90
17740;DHT22;8990;33.226;-97.150;2022-10-14T09:29:41;13.10;99.90
17740;DHT22;8990;33.226;-97.150;2022-10-14T09:32:13;13.20;99.90
17740;DHT22;8990;33.226;-97.150;2022-10-14T09:34:46;13.20;99.90
17740;DHT22;8990;33.226;-97.150;2022-10-14T09:37:26;13.20;99.90
17740;DHT22;8990;33.226;-97.150;2022-10-14T09:39:58;13.20;99.90
17740;DHT22;8990;33.226;-97.150;2022-10-14T09:42:40;13.20;99.90
17740;DHT22;8990;33.226;-97.150;2022-10-14T09:45:14;13.10;99.90
17740;DHT22;8990;33.226;-97.150;2022-10-14T09:47:51;13.10;99.90
17740;DHT22;8990;33.226;-97.150;2022-10-14T09:50:28;13.10;99.90
17740;DHT22;8990;33.226;-97.150;2022-10-14T09:53:01;13.20;99.90
17740;DHT22;8990;33.226;-97.150;2022-10-14T09:55:31;13.10;99.90
17740;DHT22;8990;33.226;-97.150;2022-10-14T09:58:05;13.10;99.90
17740;DHT22;8990;33.226;-97.150;2022-10-14T10:00:36;13.10;99.90
17740;DHT22;8990;33.226;-97.150;2022-10-14T10:03:06;13.10;99.90
17740;DHT22;8990;33.226;-97.150;2022-10-14T10:05:38;13.10;99.90
17740;DHT22;8990;33.226;-97.150;2022-10-14T10:08:15;13.20;99.90
17740;DHT22;8990;33.226;-97.150;2022-10-14T10:10:57;13.20;99.90
17740;DHT22;8990;33.226;-97.150;2022-10-14T10:13:35;13.20;99.90
17740;DHT22;8990;33.226;-97.150;2022-10-14T10:16:23;13.20;99.90
17740;DHT22;8990;33.226;-97.150;2022-10-14T10:18:54;13.30;99.90
17740;DHT22;8990;33.226;-97.150;2022-10-14T10:21:28;13.30;99.90
17740;DHT22;8990;33.226;-97.150;2022-10-14T10:23:58;13.30;99.90
17740;DHT22;8990;33.226;-97.150;2022-10-14T10:26:29;13.30;99.90
17740;DHT22;8990;33.226;-97.150;2022-10-14T10:29:04;13.20;99.90
17740;DHT22;8990;33.226;-97.150;2022-10-14T10:32:03;13.20;99.90
17740;DHT22;8990;33.226;-97.150;2022-10-14T10:35:04;13.20;99.90
17740;DHT22;8990;33.226;-97.150;2022-10-14T10:37:40;13.10;99.90
17740;DHT22;8990;33.226;-97.150;2022-10-14T10:40:31;13.10;99.90
17740;DHT22;8990;33.226;-97.150;2022-10-14T10:46:10;13.10;99.90
17740;DHT22;8990;33.226;-97.150;2022-10-14T10:48:45;13.10;99.90
17740;DHT22;8990;33.226;-97.150;2022-10-14T10:51:22;13.10;99.90
17740;DHT22;8990;33.226;-97.150;2022-10-14T10:54:05;13.10;99.90
17740;DHT22;8990;33.226;-97.150;2022-10-14T10:56:41;13.10;99.90
17740;DHT22;8990;33.226;-97.150;2022-10-14T11:05:14;13.10;99.90
17740;DHT22;8990;33.226;-97.150;2022-10-14T11:07:53;13.10;99.90
17740;DHT22;8990;33.226;-97.150;2022-10-14T11:10:49;13.10;99.90
17740;DHT22;8990;33.226;-97.150;2022-10-14T11:13:44;13.00;99.90
17740;DHT22;8990;33.226;-97.150;2022-10-14T11:16:19;13.00;99.90
17740;DHT22;8990;33.226;-97.150;2022-10-14T11:18:58;13.10;99.90
17740;DHT22;8990;33.226;-97.150;2022-10-14T11:21:39;13.10;99.90
17740;DHT22;8990;33.226;-97.150;2022-10-14T11:24:12;13.10;99.90
17740;DHT22;8990;33.226;-97.150;2022-10-14T11:26:56;13.10;99.90
17740;DHT22;8990;33.226;-97.150;2022-10-14T11:29:40;13.10;99.90
17740;DHT22;8990;33.226;-97.150;2022-10-14T11:32:18;13.10;99.90
17740;DHT22;8990;33.226;-97.150;2022-10-14T11:35:00;13.10;99.90
17740;DHT22;8990;33.226;-97.150;2022-10-14T11:37:45;13.10;99.90
17740;DHT22;8990;33.226;-97.150;2022-10-14T11:40:23;13.00;99.90
17740;DHT22;8990;33.226;-97.150;2022-10-14T11:43:03;13.00;99.90
17740;DHT22;8990;33.226;-97.150;2022-10-14T11:45:48;12.90;99.90
17740;DHT22;8990;33.226;-97.150;2022-10-14T11:48:29;12.90;99.90
17740;DHT22;8990;33.226;-97.150;2022-10-14T11:51:07;12.90;99.90
17740;DHT22;8990;33.226;-97.150;2022-10-14T11:53:52;12.90;99.90
17740;DHT22;8990;33.226;-97.150;2022-10-14T11:56:34;12.70;99.90
17740;DHT22;8990;33.226;-97.150;2022-10-14T12:02:24;12.60;99.90
17740;DHT22;8990;33.226;-97.150;2022-10-14T12:05:05;12.60;99.90
17740;DHT22;8990;33.226;-97.150;2022-10-14T12:07:40;12.60;99.90
17740;DHT22;8990;33.226;-97.150;2022-10-14T12:10:19;12.60;99.90
17740;DHT22;8990;33.226;-97.150;2022-10-14T12:12:54;12.50;99.90
17740;DHT22;8990;33.226;-97.150;2022-10-14T12:15:25;12.50;99.90
17740;DHT22;8990;33.226;-97.150;2022-10-14T12:17:58;12.50;99.90
17740;DHT22;8990;33.226;-97.150;2022-10-14T12:20:37;12.60;99.90
17740;DHT22;8990;33.226;-97.150;2022-10-14T12:23:15;12.60;99.90
17740;DHT22;8990;33.226;-97.150;2022-10-14T12:25:51;12.60;99.90
17740;DHT22;8990;33.226;-97.150;2022-10-14T12:28:24;12.60;99.90
17740;DHT22;8990;33.226;-97.150;2022-10-14T12:31:20;12.50;99.90
17740;DHT22;8990;33.226;-97.150;2022-10-14T12:36:54;12.50;99.90
17740;DHT22;8990;33.226;-97.150;2022-10-14T12:39:31;12.50;99.90
17740;DHT22;8990;33.226;-97.150;2022-10-14T12:42:04;12.60;99.90
17740;DHT22;8990;33.226;-97.150;2022-10-14T12:44:43;12.60;99.90
17740;DHT22;8990;33.226;-97.150;2022-10-14T12:47:17;12.60;99.90
17740;DHT22;8990;33.226;-97.150;2022-10-14T12:49:48;12.60;99.90
17740;DHT22;8990;33.226;-97.150;2022-10-14T12:52:24;12.70;99.90
17740;DHT22;8990;33.226;-97.150;2022-10-14T12:54:55;12.70;99.90
17740;DHT22;8990;33.226;-97.150;2022-10-14T12:57:29;12.70;99.90
17740;DHT22;8990;33.226;-97.150;2022-10-14T13:00:02;12.80;99.90
17740;DHT22;8990;33.226;-97.150;2022-10-14T13:02:36;12.80;99.90
17740;DHT22;8990;33.226;-97.150;2022-10-14T13:05:07;12.90;99.90
17740;DHT22;8990;33.226;-97.150;2022-10-14T13:07:44;13.00;99.90
17740;DHT22;8990;33.226;-97.150;2022-10-14T13:10:40;13.00;99.90
17740;DHT22;8990;33.226;-97.150;2022-10-14T13:19:45;13.20;99.90
17740;DHT22;8990;33.226;-97.150;2022-10-14T13:22:39;13.40;99.90
17740;DHT22;8990;33.226;-97.150;2022-10-14T13:25:13;13.50;99.90
17740;DHT22;8990;33.226;-97.150;2022-10-14T13:28:03;13.70;99.90
17740;DHT22;8990;33.226;-97.150;2022-10-14T13:30:44;13.90;99.90
17740;DHT22;8990;33.226;-97.150;2022-10-14T13:33:21;14.00;99.90
17740;DHT22;8990;33.226;-97.150;2022-10-14T13:36:01;14.20;99.90
17740;DHT22;8990;33.226;-97.150;2022-10-14T13:38:34;14.40;99.90
17740;DHT22;8990;33.226;-97.150;2022-10-14T13:41:05;14.60;99.90
17740;DHT22;8990;33.226;-97.150;2022-10-14T13:43:42;14.70;99.90
17740;DHT22;8990;33.226;-97.150;2022-10-14T13:46:15;14.90;99.90
17740;DHT22;8990;33.226;-97.150;2022-10-14T13:48:47;15.10;99.90
17740;DHT22;8990;33.226;-97.150;2022-10-14T13:51:25;15.30;99.90
17740;DHT22;8990;33.226;-97.150;2022-10-14T13:53:57;15.50;99.90
17740;DHT22;8990;33.226;-97.150;2022-10-14T13:56:27;15.80;99.90
17740;DHT22;8990;33.226;-97.150;2022-10-14T13:58:57;16.00;99.90
17740;DHT22;8990;33.226;-97.150;2022-10-14T14:01:31;16.20;99.90
17740;DHT22;8990;33.226;-97.150;2022-10-14T14:04:02;16.40;99.90
17740;DHT22;8990;33.226;-97.150;2022-10-14T14:06:32;16.60;99.90
17740;DHT22;8990;33.226;-97.150;2022-10-14T14:09:04;16.80;99.90
17740;DHT22;8990;33.226;-97.150;2022-10-14T14:11:35;17.00;99.90
17740;DHT22;8990;33.226;-97.150;2022-10-14T14:14:08;17.20;99.90
17740;DHT22;8990;33.226;-97.150;2022-10-14T14:16:48;17.40;99.90
17740;DHT22;8990;33.226;-97.150;2022-10-14T14:19:23;17.60;99.90
17740;DHT22;8990;33.226;-97.150;2022-10-14T14:22:10;17.70;99.90
17740;DHT22;8990;33.226;-97.150;2022-10-14T14:24:45;18.00;99.90
17740;DHT22;8990;33.226;-97.150;2022-10-14T14:27:16;18.20;99.90
17740;DHT22;8990;33.226;-97.150;2022-10-14T14:29:48;18.20;99.70
17740;DHT22;8990;33.226;-97.150;2022-10-14T14:32:20;18.40;99.70
17740;DHT22;8990;33.226;-97.150;2022-10-14T14:34:50;18.60;99.30
17740;DHT22;8990;33.226;-97.150;2022-10-14T14:37:25;18.80;98.20
17740;DHT22;8990;33.226;-97.150;2022-10-14T14:39:57;19.00;97.40
17740;DHT22;8990;33.226;-97.150;2022-10-14T14:42:29;19.20;97.00
17740;DHT22;8990;33.226;-97.150;2022-10-14T14:45:02;19.40;96.60
17740;DHT22;8990;33.226;-97.150;2022-10-14T14:47:31;19.60;96.80
17740;DHT22;8990;33.226;-97.150;2022-10-14T14:50:01;19.70;96.80
17740;DHT22;8990;33.226;-97.150;2022-10-14T14:52:33;19.90;96.60
17740;DHT22;8990;33.226;-97.150;2022-10-14T14:55:05;20.10;96.60
17740;DHT22;8990;33.226;-97.150;2022-10-14T14:57:34;20.20;96.70
17740;DHT22;8990;33.226;-97.150;2022-10-14T15:00:05;20.40;96.40
17740;DHT22;8990;33.226;-97.150;2022-10-14T15:02:35;20.50;96.20
17740;DHT22;8990;33.226;-97.150;2022-10-14T15:05:07;20.70;96.00
17740;DHT22;8990;33.226;-97.150;2022-10-14T15:07:42;20.80;96.40
17740;DHT22;8990;33.226;-97.150;2022-10-14T15:10:21;21.00;95.40
17740;DHT22;8990;33.226;-97.150;2022-10-14T15:12:53;21.20;94.80
17740;DHT22;8990;33.226;-97.150;2022-10-14T15:15:25;21.30;95.00
17740;DHT22;8990;33.226;-97.150;2022-10-14T15:18:12;21.40;94.70
17740;DHT22;8990;33.226;-97.150;2022-10-14T15:20:42;21.50;95.50
17740;DHT22;8990;33.226;-97.150;2022-10-14T15:23:40;21.70;94.00
17740;DHT22;8990;33.226;-97.150;2022-10-14T15:26:22;21.90;94.30
17740;DHT22;8990;33.226;-97.150;2022-10-14T15:29:12;22.20;93.10
17740;DHT22;8990;33.226;-97.150;2022-10-14T15:31:44;22.40;92.80
17740;DHT22;8990;33.226;-97.150;2022-10-14T15:34:19;22.60;92.30
17740;DHT22;8990;33.226;-97.150;2022-10-14T15:36:51;22.90;90.90
17740;DHT22;8990;33.226;-97.150;2022-10-14T15:39:24;23.00;91.50
17740;DHT22;8990;33.226;-97.150;2022-10-14T15:41:53;23.20;89.90
17740;DHT22;8990;33.226;-97.150;2022-10-14T15:44:23;23.30;90.60
17740;DHT22;8990;33.226;-97.150;2022-10-14T15:46:52;23.50;90.20
17740;DHT22;8990;33.226;-97.150;2022-10-14T15:49:44;23.70;89.00
17740;DHT22;8990;33.226;-97.150;2022-10-14T15:52:14;23.80;88.70
17740;DHT22;8990;33.226;-97.150;2022-10-14T15:54:45;24.00;88.00
17740;DHT22;8990;33.226;-97.150;2022-10-14T15:57:15;24.10;87.70
17740;DHT22;8990;33.226;-97.150;2022-10-14T15:59:47;24.20;86.40
17740;DHT22;8990;33.226;-97.150;2022-10-14T16:02:21;24.20;85.60
17740;DHT22;8990;33.226;-97.150;2022-10-14T16:04:50;24.40;85.50
17740;DHT22;8990;33.226;-97.150;2022-10-14T16:07:19;24.40;86.20
17740;DHT22;8990;33.226;-97.150;2022-10-14T16:09:51;24.60;84.10
17740;DHT22;8990;33.226;-97.150;2022-10-14T16:12:21;24.70;84.80
17740;DHT22;8990;33.226;-97.150;2022-10-14T16:14:50;24.80;83.40
17740;DHT22;8990;33.226;-97.150;2022-10-14T16:17:20;24.90;84.30
17740;DHT22;8990;33.226;-97.150;2022-10-14T16:19:50;25.00;84.10
17740;DHT22;8990;33.226;-97.150;2022-10-14T16:22:19;25.10;83.50
17740;DHT22;8990;33.226;-97.150;2022-10-14T16:24:50;25.20;83.50